createdAt,value
2019-02-26T00:01:28.714Z,19.20
2019-02-26T00:03:58.795Z,19.70
2019-02-26T00:06:29.711Z,21.20
2019-02-26T00:09:01.214Z,20.00
2019-02-26T00:11:30.948Z,21.33
2019-02-26T00:14:00.334Z,20.03
2019-02-26T00:16:29.487Z,20.30
2019-02-26T00:19:02.627Z,21.13
2019-02-26T00:21:31.020Z,20.80
2019-02-26T00:24:00.213Z,20.37
2019-02-26T00:26:29.313Z,19.47
2019-02-26T00:28:59.783Z,21.20
2019-02-26T00:31:30.451Z,20.60
2019-02-26T00:33:59.804Z,21.00
2019-02-26T00:36:29.747Z,21.80
2019-02-26T00:39:00.723Z,21.50
2019-02-26T00:41:31.873Z,19.33
2019-02-26T00:44:02.242Z,19.57
2019-02-26T00:46:32.599Z,20.20
2019-02-26T00:49:03.570Z,20.90
2019-02-26T00:51:33.738Z,20.33
2019-02-26T00:54:04.118Z,20.03
2019-02-26T00:56:34.068Z,19.47
2019-02-26T00:59:04.446Z,20.60
2019-02-26T01:01:33.615Z,21.87
2019-02-26T01:04:02.826Z,20.30
2019-02-26T01:06:33.533Z,21.63
2019-02-26T01:09:04.132Z,19.63
2019-02-26T01:11:33.699Z,21.33
2019-02-26T01:14:02.805Z,20.43
2019-02-26T01:16:31.958Z,21.07
2019-02-26T01:19:01.030Z,21.63
2019-02-26T01:21:31.128Z,20.47
2019-02-26T01:24:01.753Z,20.70
2019-02-26T01:26:31.736Z,21.70
2019-02-26T01:29:01.004Z,19.63
2019-02-26T01:31:32.089Z,20.40
2019-02-26T01:34:01.158Z,21.37
2019-02-26T01:36:30.329Z,21.63
2019-02-26T01:38:59.442Z,21.57
2019-02-26T01:41:28.584Z,22.63
2019-02-26T01:43:57.686Z,21.07
2019-02-26T01:46:26.765Z,22.47
2019-02-26T01:48:57.513Z,21.93
2019-02-26T01:51:28.477Z,22.10
2019-02-26T01:53:57.447Z,20.73
2019-02-26T01:56:26.518Z,22.87
2019-02-26T01:58:56.891Z,21.77
2019-02-26T02:01:26.460Z,23.63
2019-02-26T02:03:56.280Z,23.60
2019-02-26T02:06:25.587Z,23.63
2019-02-26T02:08:55.729Z,22.53
2019-02-26T02:11:28.256Z,22.93
2019-02-26T02:13:56.209Z,22.80
2019-02-26T02:16:27.292Z,21.83
2019-02-26T02:18:58.189Z,22.83
2019-02-26T02:21:30.425Z,22.93
2019-02-26T02:23:57.674Z,23.27
2019-02-26T02:26:26.778Z,23.67
2019-02-26T02:28:55.841Z,22.23
2019-02-26T02:31:27.101Z,22.50
2019-02-26T02:33:55.729Z,24.43
2019-02-26T02:36:26.475Z,21.60
2019-02-26T02:38:55.810Z,22.57
2019-02-26T02:41:24.950Z,21.90
2019-02-26T02:43:54.089Z,24.37
2019-02-26T02:46:23.170Z,23.37
2019-02-26T02:48:52.293Z,23.70
2019-02-26T02:51:21.463Z,23.63
2019-02-26T02:53:53.401Z,24.37
2019-02-26T02:56:21.406Z,23.17
2019-02-26T02:58:51.549Z,23.37
2019-02-26T03:01:24.447Z,23.80
2019-02-26T03:03:53.812Z,22.83
2019-02-26T03:06:24.248Z,25.40
2019-02-26T03:08:53.550Z,24.83
2019-02-26T03:11:22.747Z,24.70
2019-02-26T03:13:53.716Z,25.07
2019-02-26T03:16:25.057Z,24.73
2019-02-26T03:18:53.550Z,24.60
2019-02-26T03:21:24.756Z,25.13
2019-02-26T03:23:53.519Z,24.70
2019-02-26T03:26:23.505Z,24.30
2019-02-26T03:28:53.450Z,25.73
2019-02-26T03:31:28.833Z,25.67
2019-02-26T03:33:59.957Z,25.70
2019-02-26T03:36:24.210Z,24.83
2019-02-26T03:38:54.769Z,24.47
2019-02-26T03:41:26.126Z,26.30
2019-02-26T03:43:57.304Z,25.87
2019-02-26T03:46:25.703Z,24.63
2019-02-26T03:48:54.879Z,26.43
2019-02-26T03:51:24.053Z,25.47
2019-02-26T03:53:53.154Z,25.27
2019-02-26T03:56:22.548Z,27.07
2019-02-26T03:58:54.424Z,25.60
2019-02-26T04:01:22.423Z,27.50
2019-02-26T04:03:51.537Z,25.50
2019-02-26T04:06:20.714Z,25.87
2019-02-26T04:08:51.182Z,27.47
2019-02-26T04:11:22.836Z,26.07
2019-02-26T04:13:53.654Z,28.03
2019-02-26T04:16:22.314Z,29.43
2019-02-26T04:18:52.131Z,29.90
2019-02-26T04:21:21.382Z,30.80
2019-02-26T04:23:50.577Z,29.37
2019-02-26T04:26:31.054Z,28.77
2019-02-26T04:29:14.351Z,29.20
2019-02-26T04:32:06.502Z,30.00
2019-02-26T04:34:41.559Z,31.17
2019-02-26T04:37:38.519Z,30.20
2019-02-26T04:40:17.059Z,29.53
2019-02-26T04:42:52.262Z,31.00
2019-02-26T04:45:41.221Z,29.73
2019-02-26T04:48:17.164Z,30.87
2019-02-26T04:50:44.770Z,30.57
2019-02-26T04:53:13.855Z,30.87
2019-02-26T04:55:44.858Z,30.17
2019-02-26T04:58:17.073Z,31.80
2019-02-26T05:00:45.411Z,31.83
2019-02-26T05:03:17.201Z,31.17
2019-02-26T05:05:45.249Z,31.17
2019-02-26T05:08:14.806Z,31.70
2019-02-26T05:10:46.406Z,31.10
2019-02-26T05:13:15.869Z,30.70
2019-02-26T05:15:44.921Z,30.20
2019-02-26T05:18:14.014Z,30.97
2019-02-26T05:20:47.937Z,30.70
2019-02-26T05:23:13.844Z,29.90
2019-02-26T05:25:44.819Z,31.87
2019-02-26T05:28:15.616Z,31.60
2019-02-26T05:30:46.397Z,31.13
2019-02-26T05:33:15.174Z,32.80
2019-02-26T05:35:46.253Z,30.77
2019-02-26T05:38:15.102Z,32.40
2019-02-26T05:40:45.190Z,31.50
2019-02-26T05:43:14.958Z,31.33
2019-02-26T05:45:44.042Z,32.50
2019-02-26T05:48:15.335Z,32.07
2019-02-26T05:50:44.664Z,31.53
2019-02-26T05:53:14.133Z,30.83
2019-02-26T05:55:47.055Z,32.97
2019-02-26T05:58:17.506Z,32.10
2019-02-26T06:00:44.717Z,32.90
2019-02-26T06:03:16.325Z,31.97
2019-02-26T06:05:46.567Z,32.17
2019-02-26T06:08:15.304Z,33.37
2019-02-26T06:10:44.424Z,32.97
2019-02-26T06:13:15.553Z,32.90
2019-02-26T06:15:44.280Z,31.60
2019-02-26T06:18:13.400Z,31.77
2019-02-26T06:20:42.464Z,33.63
2019-02-26T06:23:11.522Z,33.33
2019-02-26T06:25:40.576Z,32.23
2019-02-26T06:28:10.534Z,31.97
2019-02-26T06:30:40.388Z,33.00
2019-02-26T06:33:11.607Z,31.73
2019-02-26T06:35:40.705Z,33.87
2019-02-26T06:38:11.657Z,32.40
2019-02-26T06:40:42.302Z,32.33
2019-02-26T06:43:11.679Z,31.00
2019-02-26T06:45:43.072Z,33.40
2019-02-26T06:48:14.607Z,32.33
2019-02-26T06:50:43.514Z,31.27
2019-02-26T06:53:13.711Z,31.23
2019-02-26T06:55:43.898Z,32.00
2019-02-26T06:58:20.397Z,32.30
2019-02-26T07:00:54.707Z,30.23
2019-02-26T07:03:24.167Z,30.50
2019-02-26T07:05:51.362Z,31.70
2019-02-26T07:08:21.933Z,32.47
2019-02-26T07:10:51.218Z,32.33
2019-02-26T07:13:20.289Z,32.23
2019-02-26T07:15:49.437Z,33.13
2019-02-26T07:18:19.630Z,31.40
2019-02-26T07:20:52.399Z,30.77
2019-02-26T07:23:20.392Z,31.53
2019-02-26T07:25:49.460Z,32.13
2019-02-26T07:28:20.636Z,33.33
2019-02-26T07:30:49.252Z,33.23
2019-02-26T07:33:18.339Z,30.37
2019-02-26T07:35:47.748Z,32.53
2019-02-26T07:38:18.266Z,33.20
2019-02-26T07:40:47.653Z,30.83
2019-02-26T07:43:17.910Z,30.73
2019-02-26T07:45:47.704Z,36.13
2019-02-26T07:48:21.128Z,32.17
2019-02-26T07:50:49.049Z,33.20
2019-02-26T07:53:21.583Z,31.43
2019-02-26T07:55:49.225Z,32.53
2019-02-26T07:58:18.286Z,35.00
2019-02-26T08:00:49.813Z,35.03
2019-02-26T08:03:19.335Z,32.57
2019-02-26T08:05:48.960Z,35.83
2019-02-26T08:08:20.590Z,33.63
2019-02-26T08:10:50.676Z,32.90
2019-02-26T08:13:19.620Z,33.23
2019-02-26T08:15:48.697Z,32.13
2019-02-26T08:18:17.771Z,33.03
2019-02-26T08:20:46.848Z,33.10
2019-02-26T08:23:17.112Z,33.70
2019-02-26T08:25:46.697Z,35.17
2019-02-26T08:28:17.961Z,34.03
2019-02-26T08:30:47.465Z,34.23
2019-02-26T08:33:17.566Z,34.63
2019-02-26T08:35:46.989Z,34.87
2019-02-26T08:38:16.383Z,35.27
2019-02-26T08:40:45.625Z,34.40
2019-02-26T08:43:14.770Z,33.90
2019-02-26T08:45:43.816Z,35.50
2019-02-26T08:48:14.719Z,35.67
2019-02-26T08:50:44.504Z,33.57
2019-02-26T08:53:14.661Z,34.67
2019-02-26T08:55:43.750Z,33.53
2019-02-26T08:58:12.800Z,33.37
2019-02-26T09:00:41.877Z,35.10
2019-02-26T09:03:13.243Z,35.70
2019-02-26T09:05:41.726Z,34.70
2019-02-26T09:08:13.229Z,35.93
2019-02-26T09:10:43.784Z,34.90
2019-02-26T09:13:14.538Z,35.67
2019-02-26T09:15:43.223Z,34.47
2019-02-26T09:18:12.668Z,33.23
2019-02-26T09:20:41.767Z,35.70
2019-02-26T09:23:10.804Z,35.27
2019-02-26T09:25:39.909Z,35.07
2019-02-26T09:28:09.201Z,35.60
2019-02-26T09:30:38.989Z,35.13
2019-02-26T09:33:10.892Z,36.07
2019-02-26T09:35:40.146Z,35.33
2019-02-26T09:38:09.297Z,34.77
2019-02-26T09:40:38.373Z,33.60
2019-02-26T09:43:07.441Z,33.63
2019-02-26T09:45:36.514Z,35.37
2019-02-26T09:48:06.569Z,35.27
2019-02-26T09:50:36.705Z,34.67
2019-02-26T09:53:06.469Z,37.80
2019-02-26T09:55:35.542Z,35.57
2019-02-26T09:58:04.663Z,38.10
2019-02-26T10:00:33.772Z,36.43
2019-02-26T10:03:05.306Z,34.50
2019-02-26T10:05:34.062Z,35.50
2019-02-26T10:08:05.280Z,37.67
2019-02-26T10:10:36.896Z,35.77
2019-02-26T10:13:04.867Z,36.83
2019-02-26T10:15:34.784Z,39.43
2019-02-26T10:18:06.802Z,34.77
2019-02-26T10:20:35.609Z,35.17
2019-02-26T10:23:06.369Z,35.60
2019-02-26T10:25:38.747Z,36.20
2019-02-26T10:28:11.035Z,36.67
2019-02-26T10:30:39.446Z,34.97
2019-02-26T10:33:08.161Z,36.20
2019-02-26T10:35:39.627Z,37.13
2019-02-26T10:38:11.135Z,36.63
2019-02-26T10:40:50.529Z,36.33
2019-02-26T10:43:09.567Z,36.00
2019-02-26T10:45:41.634Z,35.63
2019-02-26T10:48:09.406Z,35.83
2019-02-26T10:50:40.366Z,37.93
2019-02-26T10:53:11.553Z,35.33
2019-02-26T10:55:41.855Z,37.03
2019-02-26T10:58:13.219Z,35.97
2019-02-26T11:00:42.082Z,35.30
2019-02-26T11:03:12.951Z,35.27
2019-02-26T11:05:42.664Z,35.30
2019-02-26T11:08:13.017Z,37.03
2019-02-26T11:10:44.374Z,35.00
2019-02-26T11:13:14.841Z,34.60
2019-02-26T11:15:43.671Z,37.07
2019-02-26T11:18:15.147Z,36.60
2019-02-26T11:20:45.845Z,35.77
2019-02-26T11:23:16.241Z,36.60
2019-02-26T11:25:45.178Z,37.00
2019-02-26T11:28:14.308Z,35.30
2019-02-26T11:30:44.312Z,36.53
2019-02-26T11:33:15.622Z,35.20
2019-02-26T11:35:47.156Z,37.60
2019-02-26T11:38:17.117Z,36.10
2019-02-26T11:40:46.477Z,35.87
2019-02-26T11:43:19.480Z,35.50
2019-02-26T11:45:47.999Z,35.40
2019-02-26T11:48:17.772Z,34.90
2019-02-26T11:50:46.916Z,36.10
2019-02-26T11:53:16.037Z,35.87
2019-02-26T11:55:45.118Z,34.43
2019-02-26T11:58:15.974Z,36.20
2019-02-26T12:00:57.239Z,35.60
2019-02-26T12:03:28.148Z,34.97
2019-02-26T12:05:59.100Z,37.37
2019-02-26T12:08:28.329Z,35.00
2019-02-26T12:11:01.132Z,35.20
2019-02-26T12:13:28.140Z,36.03
2019-02-26T12:15:57.228Z,35.83
2019-02-26T12:18:26.626Z,36.43
2019-02-26T12:20:55.680Z,35.90
2019-02-26T12:23:24.733Z,37.17
2019-02-26T12:25:55.554Z,35.93
2019-02-26T12:28:25.415Z,36.10
2019-02-26T12:30:55.281Z,35.20
2019-02-26T12:33:24.366Z,36.63
2019-02-26T12:35:56.312Z,36.10
2019-02-26T12:38:24.225Z,33.70
2019-02-26T12:40:53.510Z,36.67
2019-02-26T12:43:22.712Z,33.73
2019-02-26T12:45:52.660Z,33.37
2019-02-26T12:48:22.815Z,34.57
2019-02-26T12:50:52.803Z,34.67
2019-02-26T12:53:23.585Z,34.60
2019-02-26T12:55:54.246Z,35.33
2019-02-26T12:58:27.746Z,35.07
2019-02-26T13:00:55.325Z,32.53
2019-02-26T13:03:24.447Z,33.07
2019-02-26T13:05:53.497Z,33.90
2019-02-26T13:08:24.098Z,33.73
2019-02-26T13:10:56.180Z,32.50
2019-02-26T13:13:24.489Z,32.37
2019-02-26T13:15:53.824Z,33.80
2019-02-26T13:18:22.913Z,32.10
2019-02-26T13:20:56.781Z,34.10
2019-02-26T13:23:22.721Z,35.13
2019-02-26T13:25:51.813Z,34.97
2019-02-26T13:28:21.170Z,35.97
2019-02-26T13:30:50.217Z,38.17
2019-02-26T13:33:26.399Z,34.23
2019-02-26T13:35:56.340Z,36.20
2019-02-26T13:38:24.453Z,34.43
2019-02-26T13:40:51.662Z,34.47
2019-02-26T13:43:20.744Z,32.63
2019-02-26T13:45:49.786Z,33.70
2019-02-26T13:48:18.866Z,33.70
2019-02-26T13:50:47.924Z,34.33
2019-02-26T13:53:16.994Z,33.77
2019-02-26T13:55:46.086Z,33.80
2019-02-26T13:58:15.157Z,32.60
2019-02-26T14:00:44.289Z,33.67
2019-02-26T14:03:13.790Z,36.73
2019-02-26T14:05:42.862Z,33.67
2019-02-26T14:08:11.952Z,36.73
2019-02-26T14:10:41.112Z,35.10
2019-02-26T14:13:10.190Z,35.60
2019-02-26T14:15:39.457Z,36.73
2019-02-26T14:18:08.581Z,37.67
2019-02-26T14:20:38.027Z,40.57
2019-02-26T14:23:07.167Z,39.70
2019-02-26T14:25:36.333Z,39.80
2019-02-26T14:28:05.458Z,39.23
2019-02-26T14:30:34.547Z,38.13
2019-02-26T14:33:04.001Z,39.30
2019-02-26T14:35:33.057Z,39.60
2019-02-26T14:38:02.417Z,38.47
2019-02-26T14:40:31.497Z,38.93
2019-02-26T14:43:00.666Z,36.57
2019-02-26T14:45:29.743Z,38.47
2019-02-26T14:47:58.826Z,40.83
2019-02-26T14:50:28.048Z,38.67
2019-02-26T14:52:57.100Z,38.93
2019-02-26T14:55:26.193Z,39.13
2019-02-26T14:57:55.236Z,38.20
2019-02-26T15:00:28.929Z,38.17
2019-02-26T15:02:58.090Z,37.57
2019-02-26T15:05:27.140Z,36.97
2019-02-26T15:07:56.230Z,38.60
2019-02-26T15:10:25.333Z,37.67
2019-02-26T15:12:54.686Z,40.60
2019-02-26T15:15:23.744Z,38.60
2019-02-26T15:17:52.902Z,39.53
2019-02-26T15:20:23.399Z,40.27
2019-02-26T15:22:52.557Z,39.63
2019-02-26T15:25:26.066Z,42.97
2019-02-26T15:28:04.257Z,41.27
2019-02-26T15:30:25.906Z,40.87
2019-02-26T15:32:55.072Z,39.87
2019-02-26T15:35:24.497Z,40.87
2019-02-26T15:38:13.111Z,40.43
2019-02-26T15:40:42.233Z,41.67
2019-02-26T15:43:11.309Z,39.10
2019-02-26T15:45:40.398Z,39.00
2019-02-26T15:48:09.497Z,40.10
2019-02-26T15:50:40.260Z,39.00
2019-02-26T15:53:09.480Z,40.63
2019-02-26T15:55:38.529Z,40.70
2019-02-26T15:58:07.586Z,39.80
2019-02-26T16:00:37.988Z,40.90
2019-02-26T16:03:07.609Z,40.17
2019-02-26T16:05:39.675Z,40.83
2019-02-26T16:08:08.837Z,39.67
2019-02-26T16:10:37.928Z,40.40
2019-02-26T16:13:07.087Z,40.73
2019-02-26T16:15:38.082Z,42.53
2019-02-26T16:18:07.148Z,40.10
2019-02-26T16:20:36.230Z,42.33
2019-02-26T16:23:05.373Z,42.43
2019-02-26T16:25:34.453Z,43.07
2019-02-26T16:28:03.581Z,42.93
2019-02-26T16:30:32.645Z,42.17
2019-02-26T16:33:01.701Z,43.33
2019-02-26T16:35:30.785Z,43.73
2019-02-26T16:37:59.913Z,42.97
2019-02-26T16:40:32.255Z,43.43
2019-02-26T16:42:59.769Z,43.73
2019-02-26T16:45:29.110Z,43.57
2019-02-26T16:47:58.206Z,42.83
2019-02-26T16:50:31.676Z,42.67
2019-02-26T16:53:01.215Z,43.30
2019-02-26T16:55:30.780Z,50.80
2019-02-26T16:58:02.593Z,56.30
2019-02-26T17:00:31.250Z,50.00
2019-02-26T17:03:01.355Z,47.43
2019-02-26T17:05:30.591Z,48.47
2019-02-26T17:07:59.821Z,48.70
2019-02-26T17:10:30.439Z,50.00
2019-02-26T17:13:02.275Z,47.47
2019-02-26T17:15:31.226Z,46.97
2019-02-26T17:18:00.374Z,45.27
2019-02-26T17:20:29.498Z,47.90
2019-02-26T17:22:58.576Z,48.67
2019-02-26T17:25:28.952Z,47.00
2019-02-26T17:27:58.673Z,45.67
2019-02-26T17:30:27.839Z,48.07
2019-02-26T17:32:56.929Z,46.97
2019-02-26T17:35:28.783Z,49.50
2019-02-26T17:37:56.794Z,48.23
2019-02-26T17:40:26.939Z,47.93
2019-02-26T17:42:56.091Z,48.43
2019-02-26T17:45:27.142Z,48.97
2019-02-26T17:47:56.849Z,48.20
2019-02-26T17:50:50.483Z,49.17
2019-02-26T17:53:20.448Z,49.00
2019-02-26T17:55:49.538Z,52.53
2019-02-26T17:58:18.925Z,48.60
2019-02-26T18:03:46.345Z,48.87
2019-02-26T18:06:15.468Z,50.30
2019-02-26T18:08:44.515Z,52.37
2019-02-26T18:11:13.572Z,50.80
2019-02-26T18:13:42.634Z,53.20
2019-02-26T18:16:11.697Z,55.60
2019-02-26T18:18:40.782Z,54.87
2019-02-26T18:21:09.882Z,57.13
2019-02-26T18:23:38.932Z,55.43
2019-02-26T18:26:08.011Z,58.23
2019-02-26T18:28:37.103Z,55.53
2019-02-26T18:31:06.240Z,57.43
2019-02-26T18:33:36.187Z,58.00
2019-02-26T18:36:05.365Z,63.93
2019-02-26T18:38:37.098Z,59.30
2019-02-26T18:41:06.236Z,64.73
2019-02-26T18:43:35.325Z,63.70
2019-02-26T18:46:04.469Z,64.60
2019-02-26T18:48:33.557Z,67.67
2019-02-26T18:51:03.060Z,66.73
2019-02-26T18:53:32.164Z,59.83
2019-02-26T18:56:01.739Z,60.10
2019-02-26T18:58:32.332Z,63.13
2019-02-26T19:01:01.381Z,60.13
2019-02-26T19:03:30.518Z,62.73
2019-02-26T19:05:59.672Z,62.40
2019-02-26T19:08:29.016Z,60.33
2019-02-26T19:10:58.113Z,60.33
2019-02-26T19:13:27.264Z,58.00
2019-02-26T19:15:56.367Z,62.73
2019-02-26T19:18:25.488Z,59.17
2019-02-26T19:20:54.862Z,60.83
2019-02-26T19:23:23.917Z,55.57
2019-02-26T19:25:53.297Z,61.97
2019-02-26T19:28:25.659Z,62.57
2019-02-26T19:30:53.194Z,58.13
2019-02-26T19:33:22.584Z,57.90
2019-02-26T19:35:51.652Z,62.37
2019-02-26T19:38:20.748Z,59.23
2019-02-26T19:40:53.169Z,54.03
2019-02-26T19:43:23.791Z,58.13
2019-02-26T19:45:52.998Z,58.17
2019-02-26T19:48:22.081Z,56.43
2019-02-26T19:50:51.208Z,58.17
2019-02-26T19:53:20.280Z,57.20
2019-02-26T19:55:50.169Z,55.83
2019-02-26T19:58:19.312Z,55.17
2019-02-26T20:00:52.621Z,57.17
2019-02-26T20:03:19.186Z,54.67
2019-02-26T20:05:48.286Z,55.77
2019-02-26T20:08:17.414Z,60.77
2019-02-26T20:10:49.097Z,58.50
2019-02-26T20:13:17.226Z,53.60
2019-02-26T20:15:46.339Z,51.50
2019-02-26T20:18:20.666Z,50.97
2019-02-26T20:20:46.633Z,57.17
2019-02-26T20:23:15.927Z,52.43
2019-02-26T20:25:46.818Z,55.33
2019-02-26T20:28:15.805Z,55.13
2019-02-26T20:30:44.903Z,54.00
2019-02-26T20:33:13.990Z,56.37
2019-02-26T20:35:45.145Z,55.07
2019-02-26T20:38:13.859Z,55.80
2019-02-26T20:40:42.913Z,56.37
2019-02-26T20:43:12.019Z,55.40
2019-02-26T20:45:41.104Z,53.63
2019-02-26T20:48:10.263Z,52.37
2019-02-26T20:50:39.490Z,54.73
2019-02-26T20:53:08.544Z,54.63
2019-02-26T20:55:37.673Z,52.20
2019-02-26T20:58:06.827Z,57.10
2019-02-26T21:00:42.217Z,55.70
2019-02-26T21:03:08.060Z,55.43
2019-02-26T21:05:37.233Z,55.27
2019-02-26T21:08:13.321Z,57.57
2019-02-26T21:10:42.409Z,51.13
2019-02-26T21:13:11.523Z,51.37
2019-02-26T21:15:40.572Z,55.77
2019-02-26T21:18:11.374Z,53.50
2019-02-26T21:20:41.111Z,55.27
2019-02-26T21:23:10.856Z,56.37
2019-02-26T21:25:43.856Z,57.47
2019-02-26T21:28:10.720Z,56.60
2019-02-26T21:30:39.772Z,61.97
2019-02-26T21:33:08.863Z,57.87
2019-02-26T21:35:37.955Z,56.77
2019-02-26T21:38:07.119Z,57.90
2019-02-26T21:40:37.331Z,51.53
2019-02-26T21:43:06.706Z,51.67
2019-02-26T21:45:35.756Z,60.83
2019-02-26T21:48:04.859Z,49.03
2019-02-26T21:50:34.062Z,51.77
2019-02-26T21:53:03.151Z,57.97
2019-02-26T21:55:51.633Z,53.77
2019-02-26T21:58:20.694Z,55.23
2019-02-26T22:01:11.499Z,53.53
2019-02-26T22:03:39.974Z,52.27
2019-02-26T22:06:11.035Z,53.80
2019-02-26T22:08:39.882Z,53.20
2019-02-26T22:11:09.230Z,52.70
2019-02-26T22:13:38.280Z,54.30
2019-02-26T22:16:07.379Z,54.40
2019-02-26T22:18:36.458Z,55.13
2019-02-26T22:21:05.655Z,54.53
2019-02-26T22:23:34.920Z,58.03
2019-02-26T22:26:04.053Z,54.20
2019-02-26T22:28:33.214Z,55.80
2019-02-26T22:31:02.317Z,56.10
2019-02-26T22:33:31.394Z,57.50
2019-02-26T22:36:00.449Z,58.90
2019-02-26T22:38:31.556Z,58.57
2019-02-26T22:41:02.373Z,55.27
2019-02-26T22:43:31.505Z,60.30
2019-02-26T22:46:01.030Z,58.27
2019-02-26T22:48:30.834Z,58.27
2019-02-26T22:51:00.313Z,55.30
2019-02-26T22:53:29.731Z,59.80
2019-02-26T22:55:58.956Z,57.10
2019-02-26T22:58:28.052Z,56.67
2019-02-26T23:01:17.377Z,53.97
2019-02-26T23:03:46.581Z,53.10
2019-02-26T23:06:15.774Z,57.73
2019-02-26T23:08:45.391Z,58.20
2019-02-26T23:11:15.018Z,56.17
2019-02-26T23:13:44.186Z,50.90
2019-02-26T23:16:17.995Z,53.67
2019-02-26T23:18:44.450Z,56.90
2019-02-26T23:21:15.729Z,55.20
2019-02-26T23:23:44.975Z,52.30
2019-02-26T23:26:16.014Z,53.93
2019-02-26T23:28:45.113Z,53.43
2019-02-26T23:31:14.210Z,58.03
2019-02-26T23:33:47.823Z,51.50
2019-02-26T23:36:14.403Z,51.73
2019-02-26T23:38:44.172Z,54.07
2019-02-26T23:41:13.833Z,52.77
2019-02-26T23:43:45.401Z,50.93
2019-02-26T23:46:14.790Z,52.30
2019-02-26T23:48:43.881Z,56.77
2019-02-26T23:51:21.606Z,59.63
2019-02-26T23:53:50.673Z,58.20
2019-02-26T23:56:19.902Z,60.13
2019-02-26T23:58:49.104Z,60.77
